Baldwin Harbor, New York
Current Conditions -  °F | °C
As of 10:24 AM on Monday 24 Nov 2014 (Local Time) from KJFK Reporting Station
Haze Haze  
Wind Chill: 59°   Ceiling: 200
Heat Index: 59°   Visibility: 0.5mi
Dew Point: 57°   Wind: 21mph
Humidity: 94%   Direction: 180°S
Pressure: 29.7"   Gusts: NA
Location:  40.6539°N, 73.609°W
Report Text: KJFK 241524Z 18018KT 1/2SM R04R/1800V4500FT BR BKN002 BKN017 BKN038 15/14 A2970 RMK AO2 SFC VIS 3 VIS E-SW 1/4 $
Loading
Personal Weather Stations






























Interactive Weather Map New forecast layout! Learn more

10-Day Weather Forecast

Advertisements
Track Severe Weather on mobile